Time;durP1;ratioP1;P1;durP2;ratioP2;P2;SDS_P1;SDS_P2;PMS_P1;PMS_P2;Temp;Humidity;BMP_temperature;BMP_pressure;BME280_temperature;BME280_humidity;BME280_pressure;Samples;Min_cycle;Max_cycle;Signal;HPM_P1;HPM_P2
2023/12/04 00:00:40;;;;;;;;;22.75;18.00;;;;;15.52;63.27;100849.41;146634;683;46020;-64
2023/12/04 00:03:34;;;;;;;;;22.25;20.00;;;;;15.43;64.03;100850.87;146631;566;45010;-64
2023/12/04 00:06:27;;;;;;;;;21.75;15.50;;;;;15.42;64.25;100856.03;146633;645;46010;-64
2023/12/04 00:09:24;;;;;;;;;17.75;15.00;;;;;15.42;64.05;100864.78;146628;607;46016;-64
2023/12/04 00:12:16;;;;;;;;;20.75;18.50;;;;;15.41;64.06;100856.88;146637;612;44047;-65
2023/12/04 00:15:16;;;;;;;;;23.00;16.00;;;;;15.33;64.24;100858.34;146631;683;45034;-64
2023/12/04 00:18:13;;;;;;;;;20.50;16.75;;;;;15.30;64.85;100860.87;146635;609;45010;-64
2023/12/04 00:21:21;;;;;;;;;21.75;16.75;;;;;15.17;64.73;100852.59;146630;614;45917;-66
2023/12/04 00:24:13;;;;;;;;;22.75;17.75;;;;;15.22;65.10;100871.03;146635;578;45010;-66
2023/12/04 00:27:06;;;;;;;;;23.00;19.25;;;;;15.12;65.50;100874.16;146633;573;46013;-65
2023/12/04 00:30:10;;;;;;;;;25.75;18.50;;;;;15.08;65.15;100880.09;146635;617;45020;-65
2023/12/04 00:33:13;;;;;;;;;23.75;18.50;;;;;15.10;65.31;100887.16;146631;582;46012;-67
2023/12/04 00:36:08;;;;;;;;;18.50;14.75;;;;;15.11;65.60;100878.50;146637;576;45020;-66
2023/12/04 00:39:03;;;;;;;;;15.50;14.00;;;;;15.10;64.83;100875.81;146635;655;45016;-65
2023/12/04 00:41:57;;;;;;;;;26.75;14.50;;;;;15.04;65.07;100873.88;146636;565;46011;-65
2023/12/04 00:44:52;;;;;;;;;17.75;12.00;;;;;15.00;64.66;100880.72;146635;707;45012;-65
2023/12/04 00:47:53;;;;;;;;;18.25;11.50;;;;;15.00;64.57;100885.06;146634;577;45020;-64
2023/12/04 00:50:57;;;;;;;;;15.00;11.00;;;;;14.94;64.22;100877.87;146634;578;45918;-65
2023/12/04 00:54:00;;;;;;;;;17.50;11.75;;;;;14.91;64.50;100890.84;146635;563;45010;-63
2023/12/04 00:57:03;;;;;;;;;14.75;11.50;;;;;14.83;64.31;100892.28;146634;564;45012;-64
2023/12/04 01:00:06;;;;;;;;;14.00;10.00;;;;;14.78;64.24;100897.34;146636;657;45010;-63
2023/12/04 01:03:04;;;;;;;;;14.75;10.00;;;;;14.72;64.82;100899.72;146633;587;45918;-62
2023/12/04 01:06:13;;;;;;;;;10.25;8.50;;;;;14.67;64.69;100903.91;146636;564;46010;-64
2023/12/04 01:09:05;;;;;;;;;10.00;8.00;;;;;14.59;65.42;100905.31;146633;569;45918;-62
2023/12/04 01:11:58;;;;;;;;;14.75;10.00;;;;;14.53;65.54;100911.19;146637;640;45020;-63
2023/12/04 01:14:53;;;;;;;;;11.75;9.25;;;;;14.53;65.27;100903.34;146634;579;46012;-63
2023/12/04 01:17:45;;;;;;;;;13.50;11.00;;;;;14.64;65.19;100908.09;146636;661;45011;-63
2023/12/04 01:21:03;;;;;;;;;11.75;11.50;;;;;11.38;65.09;100328.56;146631;663;45025;-62
2023/12/04 01:24:06;;;;;;;;;16.25;14.50;;;;;14.91;67.24;100906.50;146635;580;45010;-63
2023/12/04 01:27:00;;;;;;;;;14.25;8.50;;;;;15.06;65.62;100915.72;146632;590;46013;-63
2023/12/04 01:29:53;;;;;;;;;14.00;10.50;;;;;15.10;65.18;100908.03;146635;688;46020;-64
2023/12/04 01:32:50;;;;;;;;;12.25;10.00;;;;;15.14;64.67;100912.56;146635;565;45012;-64
2023/12/04 01:35:46;;;;;;;;;18.50;12.00;;;;;15.18;65.27;100914.44;146622;578;47012;-64
2023/12/04 01:38:45;;;;;;;;;20.75;16.00;;;;;15.20;65.40;100924.94;146612;573;46016;-62
2023/12/04 01:41:40;;;;;;;;;20.25;14.25;;;;;15.22;65.02;100929.38;146619;583;47010;-64
2023/12/04 01:44:35;;;;;;;;;15.75;13.00;;;;;15.32;64.64;100929.72;146622;703;47016;-63
2023/12/04 01:47:52;;;;;;;;;18.00;11.75;;;;;11.99;64.01;100331.03;146622;601;46010;-62
2023/12/04 01:50:46;;;;;;;;;18.25;12.25;;;;;15.52;64.59;100935.66;146613;619;47014;-64
2023/12/04 01:53:44;;;;;;;;;14.75;9.00;;;;;15.62;64.49;100929.91;146618;608;46020;-65
2023/12/04 01:56:40;;;;;;;;;10.50;9.00;;;;;15.75;64.90;100933.84;146614;566;46017;-64
2023/12/04 01:59:35;;;;;;;;;10.50;9.25;;;;;15.84;65.67;100927.19;146618;590;46020;-62
2023/12/04 02:02:31;;;;;;;;;11.75;8.25;;;;;15.96;65.82;100937.16;146619;588;46016;-65
2023/12/04 02:05:38;;;;;;;;;11.50;10.25;;;;;16.03;65.36;100936.53;146620;703;46010;-64
2023/12/04 02:08:31;;;;;;;;;8.00;5.00;;;;;16.10;64.61;100928.03;146614;575;46014;-62
2023/12/04 02:11:35;;;;;;;;;11.50;7.25;;;;;16.15;64.67;100934.31;146621;570;46020;-60
2023/12/04 02:14:35;;;;;;;;;11.75;8.25;;;;;16.17;63.57;100932.63;146619;578;46012;-62
2023/12/04 02:17:42;;;;;;;;;;;;;;;;;;;;;
2023/12/04 02:20:43;;;;;;;;;31.50;25.50;;;;;16.13;62.72;100943.81;146609;631;47012;-62
2023/12/04 02:23:35;;;;;;;;;44.00;30.00;;;;;16.02;63.38;100952.19;146609;576;48010;-60
2023/12/04 02:26:42;;;;;;;;;43.75;30.25;;;;;15.88;62.78;100954.31;146612;630;46012;-61
2023/12/04 02:29:48;;;;;;;;;45.00;33.75;;;;;15.78;63.98;100962.69;146613;590;46020;-63
2023/12/04 02:32:55;;;;;;;;;40.00;31.00;;;;;15.68;63.93;100962.37;146612;569;46032;-63
2023/12/04 02:36:19;;;;;;;;;29.75;22.50;;;;;15.56;63.53;100956.69;146617;604;46010;-63
2023/12/04 02:39:11;;;;;;;;;29.75;24.50;;;;;15.55;64.72;100961.88;146609;616;46012;-63
2023/12/04 02:42:13;;;;;;;;;39.00;31.25;;;;;15.52;64.61;100967.91;146614;698;46020;-63
2023/12/04 02:45:17;;;;;;;;;40.00;30.75;;;;;15.42;63.96;100974.53;146609;644;46016;-61
2023/12/04 02:48:19;;;;;;;;;40.50;32.25;;;;;15.33;64.38;100975.94;146614;578;47010;-62
2023/12/04 02:51:14;;;;;;;;;42.25;32.50;;;;;15.27;65.14;100979.19;146612;564;46016;-62
2023/12/04 02:54:11;;;;;;;;;44.00;33.50;;;;;15.21;65.35;100977.25;146613;590;46011;-62
2023/12/04 02:57:04;;;;;;;;;38.75;30.50;;;;;15.13;66.09;100968.22;146611;584;47012;-62
2023/12/04 03:00:00;;;;;;;;;28.00;23.75;;;;;15.01;66.39;100968.69;146615;591;46020;-62
2023/12/04 03:02:57;;;;;;;;;32.50;23.75;;;;;14.92;66.45;100975.25;146611;578;47013;-63
2023/12/04 03:05:58;;;;;;;;;25.00;17.75;;;;;14.85;67.15;100970.66;146620;618;45020;-65
2023/12/04 03:08:50;;;;;;;;;18.75;14.50;;;;;14.74;68.41;100978.97;146613;594;46013;-62
2023/12/04 03:11:54;;;;;;;;;15.50;13.25;;;;;14.64;68.60;100983.75;146617;570;46021;-63
2023/12/04 03:14:49;;;;;;;;;19.50;11.25;;;;;14.57;68.86;100986.97;146615;572;45041;-64
2023/12/04 03:17:44;;;;;;;;;17.50;14.75;;;;;14.57;68.87;101000.03;146621;619;46010;-63
2023/12/04 03:20:40;;;;;;;;;15.50;11.00;;;;;14.52;68.73;100992.91;146613;644;47012;-64
2023/12/04 03:23:47;;;;;;;;;14.75;10.75;;;;;14.57;68.71;100998.31;146617;617;47020;-62
2023/12/04 03:26:55;;;;;;;;;19.00;15.00;;;;;14.53;68.81;101001.62;146614;630;46012;-61
2023/12/04 03:29:50;;;;;;;;;15.50;10.50;;;;;14.50;68.57;101006.69;146615;659;46917;-64
2023/12/04 03:32:52;;;;;;;;;14.50;10.50;;;;;14.48;69.30;101014.44;146615;606;46017;-63
2023/12/04 03:35:54;;;;;;;;;12.00;8.25;;;;;11.12;68.33;100434.75;146616;596;47037;-63
2023/12/04 03:39:10;;;;;;;;;15.00;10.00;;;;;14.43;69.56;101026.44;146619;635;46016;-64
2023/12/04 03:42:03;;;;;;;;;15.75;11.75;;;;;14.37;69.96;101025.31;146617;564;46012;-63
2023/12/04 03:44:59;;;;;;;;;23.75;17.00;;;;;14.27;70.74;101034.47;146608;575;47917;-63
2023/12/04 03:47:51;;;;;;;;;21.00;17.00;;;;;14.22;70.47;101033.37;146621;598;46010;-63
2023/12/04 03:50:59;;;;;;;;;;;;;;;;;;;;;
2023/12/04 03:53:57;;;;;;;;;20.00;16.00;;;;;14.17;70.54;101041.00;146616;592;46021;-63
2023/12/04 03:57:02;;;;;;;;;13.50;11.25;;;;;14.10;70.66;101042.47;146610;636;46010;-64
2023/12/04 04:00:13;;;;;;;;;16.25;13.25;;;;;14.05;70.61;101032.69;146615;592;47017;-62
2023/12/04 04:03:11;;;;;;;;;18.50;13.50;;;;;14.03;70.91;101043.03;146615;646;46034;-63
2023/12/04 04:06:13;;;;;;;;;14.50;12.00;;;;;14.07;70.93;101046.66;146617;579;46020;-63
2023/12/04 04:09:14;;;;;;;;;15.25;11.75;;;;;14.09;70.37;101050.22;146611;599;48012;-62
2023/12/04 04:12:11;;;;;;;;;13.50;11.75;;;;;14.05;70.69;101046.59;146614;574;46020;-65
2023/12/04 04:15:23;;;;;;;;;;;;;;;;;;;;;
2023/12/04 04:18:33;;;;;;;;;17.00;12.25;;;;;13.94;71.34;101053.06;146610;596;47010;-64
2023/12/04 04:21:35;;;;;;;;;19.00;14.00;;;;;13.89;70.71;101051.97;146613;578;47012;-64
2023/12/04 04:24:32;;;;;;;;;15.75;11.25;;;;;13.91;71.63;101057.28;146619;590;47012;-65
2023/12/04 04:27:41;;;;;;;;;15.50;11.00;;;;;10.27;69.74;100431.66;146616;576;47014;-64
2023/12/04 04:30:40;;;;;;;;;16.00;11.25;;;;;13.89;71.49;101065.00;146617;577;47010;-64
2023/12/04 04:33:42;;;;;;;;;14.00;11.00;;;;;13.86;71.43;101060.56;146615;606;46034;-65
2023/12/04 04:36:40;;;;;;;;;12.25;10.00;;;;;13.85;71.58;101071.81;146634;710;46010;-66
2023/12/04 04:39:46;;;;;;;;;12.75;11.00;;;;;13.83;71.70;101070.87;146630;625;46012;-65
2023/12/04 04:42:41;;;;;;;;;16.75;15.25;;;;;13.84;71.98;101070.03;146632;573;45010;-65
2023/12/04 04:45:36;;;;;;;;;14.25;12.00;;;;;13.88;71.92;101080.59;146627;665;46917;-64
2023/12/04 04:48:31;;;;;;;;;21.75;12.00;;;;;13.92;71.62;101075.56;146637;674;45020;-65
2023/12/04 04:51:27;;;;;;;;;15.25;13.25;;;;;13.95;71.44;101080.03;146635;684;45016;-65
2023/12/04 04:54:31;;;;;;;;;16.50;12.50;;;;;13.98;71.55;101086.25;146633;615;45021;-66
2023/12/04 04:57:31;;;;;;;;;21.25;15.25;;;;;13.97;71.17;101078.38;146629;622;46012;-65
2023/12/04 05:00:28;;;;;;;;;16.25;15.75;;;;;13.96;71.04;101082.72;146636;566;45021;-66
2023/12/04 05:03:27;;;;;;;;;18.75;15.00;;;;;13.97;71.01;101092.31;146632;590;45016;-66
2023/12/04 05:06:18;;;;;;;;;16.25;12.75;;;;;13.99;70.66;101097.59;146635;573;45020;-66
2023/12/04 05:09:10;;;;;;;;;15.50;13.75;;;;;13.98;70.90;101098.41;146633;604;46012;-65
2023/12/04 05:12:02;;;;;;;;;16.50;14.00;;;;;13.97;70.15;101101.84;146632;682;46010;-64
2023/12/04 05:15:00;;;;;;;;;20.50;12.75;;;;;13.97;70.40;101107.94;146631;576;46017;-65
2023/12/04 05:18:04;;;;;;;;;16.25;12.25;;;;;13.98;69.70;101101.91;146637;570;45020;-65
2023/12/04 05:20:57;;;;;;;;;19.50;13.00;;;;;13.98;70.11;101106.22;146625;605;47917;-64
2023/12/04 05:24:05;;;;;;;;;;;;;;;;;;;;;
2023/12/04 05:27:08;;;;;;;;;14.75;11.50;;;;;13.96;69.59;101110.50;146633;668;45018;-65
2023/12/04 05:30:00;;;;;;;;;11.50;10.50;;;;;13.96;69.89;101106.19;146636;583;45010;-66
2023/12/04 05:33:02;;;;;;;;;20.75;18.00;;;;;13.99;69.76;101105.44;146633;565;45012;-65
2023/12/04 05:35:57;;;;;;;;;13.50;10.25;;;;;13.93;69.45;101095.63;146621;609;46010;-66
2023/12/04 05:38:55;;;;;;;;;15.00;13.00;;;;;13.99;69.29;101101.09;146615;604;46016;-65
2023/12/04 05:41:47;;;;;;;;;16.00;13.75;;;;;14.01;69.34;101106.38;146618;662;46020;-65
2023/12/04 05:44:53;;;;;;;;;26.50;21.75;;;;;14.03;69.30;101109.94;146617;581;46012;-66
2023/12/04 05:47:56;;;;;;;;;17.75;14.00;;;;;14.05;69.21;101108.31;146616;578;46020;-64
2023/12/04 05:51:05;;;;;;;;;16.75;14.50;;;;;14.04;68.84;101117.81;146611;572;46012;-65
2023/12/04 05:54:08;;;;;;;;;18.50;16.50;;;;;14.04;68.32;101122.16;146617;581;46032;-65
2023/12/04 05:57:04;;;;;;;;;17.00;12.00;;;;;14.03;68.95;101138.63;146614;587;46016;-64
2023/12/04 06:00:05;;;;;;;;;16.50;15.25;;;;;13.96;68.64;101139.19;146617;585;47012;-66
2023/12/04 06:03:03;;;;;;;;;18.50;16.00;;;;;13.93;68.92;101145.16;146612;626;46016;-66
2023/12/04 06:05:55;;;;;;;;;21.50;16.25;;;;;13.93;69.36;101154.69;146618;577;46012;-64
2023/12/04 06:08:52;;;;;;;;;18.00;14.00;;;;;13.90;68.80;101165.00;146611;592;46017;-65
2023/12/04 06:11:50;;;;;;;;;15.75;13.75;;;;;13.90;68.70;101171.09;146617;592;46010;-65
2023/12/04 06:14:50;;;;;;;;;18.50;15.50;;;;;13.93;68.88;101178.16;146617;737;46016;-65
2023/12/04 06:17:48;;;;;;;;;17.25;14.00;;;;;13.97;68.75;101183.56;146617;573;47012;-65
2023/12/04 06:20:50;;;;;;;;;22.50;13.25;;;;;14.00;68.18;101185.41;146616;579;46014;-64
2023/12/04 06:23:59;;;;;;;;;28.75;25.75;;;;;10.72;67.33;100608.41;146614;699;46020;-65
2023/12/04 06:26:57;;;;;;;;;22.50;21.25;;;;;14.08;67.98;101195.38;146610;620;46016;-65
2023/12/04 06:30:04;;;;;;;;;19.50;16.50;;;;;14.14;67.64;101199.94;146618;586;46010;-65
2023/12/04 06:32:58;;;;;;;;;16.75;16.25;;;;;14.20;67.32;101196.72;146611;636;47016;-66
2023/12/04 06:35:57;;;;;;;;;19.25;17.00;;;;;14.26;65.98;101197.88;146616;596;46020;-66
2023/12/04 06:38:55;;;;;;;;;19.00;15.75;;;;;14.30;66.70;101192.00;146615;600;46017;-65
2023/12/04 06:42:23;;;;;;;;;13.75;11.75;;;;;14.40;66.23;101200.22;146613;646;47022;-65
2023/12/04 06:45:27;;;;;;;;;16.75;13.75;;;;;14.48;65.98;101204.91;146615;650;46013;-65
2023/12/04 06:48:22;;;;;;;;;22.25;15.00;;;;;14.57;65.39;101212.28;146618;579;47020;-65
2023/12/04 06:51:20;;;;;;;;;22.00;18.75;;;;;14.63;66.39;101209.06;146613;564;46015;-64
2023/12/04 06:54:24;;;;;;;;;;;;;;;;;;;;;
2023/12/04 06:57:25;;;;;;;;;21.50;20.00;;;;;14.79;67.31;101225.41;146610;579;47012;-64
2023/12/04 07:00:30;;;;;;;;;23.50;18.75;;;;;14.90;66.82;101230.22;146619;587;46021;-65
2023/12/04 07:03:33;;;;;;;;;30.75;23.00;;;;;14.96;66.35;101230.47;146611;621;46016;-65
2023/12/04 07:06:29;;;;;;;;;28.75;26.00;;;;;15.00;65.62;101232.38;146616;622;46011;-65
2023/12/04 07:09:30;;;;;;;;;29.75;23.25;;;;;15.01;65.24;101240.28;146612;579;46016;-65
2023/12/04 07:12:28;;;;;;;;;24.50;22.50;;;;;14.99;64.07;101235.81;146613;605;46010;-65
2023/12/04 07:15:22;;;;;;;;;21.00;18.75;;;;;14.97;64.87;101242.69;146611;571;47016;-65
2023/12/04 07:18:19;;;;;;;;;26.00;22.50;;;;;14.96;65.19;101239.19;146617;600;48012;-66
2023/12/04 07:21:30;;;;;;;;;21.00;17.50;;;;;14.97;65.47;101245.31;146612;577;46014;-65
2023/12/04 07:24:27;;;;;;;;;20.75;17.50;;;;;14.89;65.67;101238.84;146615;681;48010;-65
2023/12/04 07:27:20;;;;;;;;;25.50;21.75;;;;;14.92;64.78;101254.66;146612;569;47917;-64
2023/12/04 07:30:25;;;;;;;;;29.75;27.25;;;;;14.89;63.57;101257.13;146619;709;46010;-66
2023/12/04 07:33:37;;;;;;;;;27.00;24.50;;;;;14.92;63.40;101272.94;146611;588;47012;-64
2023/12/04 07:36:38;;;;;;;;;25.25;22.50;;;;;14.94;63.96;101266.94;146615;602;46020;-64
2023/12/04 07:39:31;;;;;;;;;21.50;19.00;;;;;14.98;64.48;101270.56;146611;617;47012;-65
2023/12/04 07:42:30;;;;;;;;;25.75;22.00;;;;;15.07;64.44;101275.31;146618;621;46020;-65
2023/12/04 07:45:23;;;;;;;;;21.25;20.50;;;;;15.12;64.22;101282.50;146613;632;46016;-65
2023/12/04 07:48:16;;;;;;;;;19.25;18.00;;;;;15.17;63.53;101278.38;146618;573;46010;-65
2023/12/04 07:51:22;;;;;;;;;19.75;17.25;;;;;15.25;63.40;101294.34;146613;642;46017;-65
2023/12/04 07:54:14;;;;;;;;;15.75;13.75;;;;;15.32;62.89;101290.25;146620;705;46010;-64
2023/12/04 07:57:10;;;;;;;;;24.75;20.50;;;;;15.39;63.26;101297.50;146612;581;47029;-65
2023/12/04 08:00:04;;;;;;;;;26.25;22.00;;;;;15.44;63.54;101294.25;146608;597;47048;-66
2023/12/04 08:02:56;;;;;;;;;21.50;21.00;;;;;15.52;64.17;101305.06;146611;690;46016;-64
2023/12/04 08:05:48;;;;;;;;;26.50;24.50;;;;;15.60;65.24;101315.78;146615;636;47010;-65
2023/12/04 08:08:52;;;;;;;;;27.50;22.25;;;;;15.65;67.36;101309.94;146611;688;46016;-65
2023/12/04 08:11:58;;;;;;;;;23.50;21.50;;;;;15.69;67.13;101316.19;146613;610;47010;-64
2023/12/04 08:14:55;;;;;;;;;25.50;21.75;;;;;15.71;66.97;101319.78;146612;564;46012;-64
2023/12/04 08:17:57;;;;;;;;;28.50;25.50;;;;;15.75;67.58;101323.41;146617;563;46020;-63
2023/12/04 08:20:56;;;;;;;;;28.75;27.25;;;;;15.75;66.37;101326.03;146610;599;47014;-64
2023/12/04 08:23:50;;;;;;;;;37.50;29.75;;;;;15.73;67.33;101331.16;146617;575;46020;-64
2023/12/04 08:26:52;;;;;;;;;38.50;32.00;;;;;15.74;66.29;101337.31;146608;575;46016;-64
2023/12/04 08:29:47;;;;;;;;;37.50;31.00;;;;;15.72;66.41;101342.47;146613;631;46020;-64
2023/12/04 08:32:54;;;;;;;;;21.75;19.25;;;;;15.72;66.79;101345.09;146614;582;46016;-64
2023/12/04 08:35:51;;;;;;;;;23.75;20.50;;;;;15.70;66.69;101349.38;146616;680;47020;-64
2023/12/04 08:38:43;;;;;;;;;20.50;18.50;;;;;15.72;68.14;101341.59;146610;650;46016;-65
2023/12/04 08:41:47;;;;;;;;;26.50;23.75;;;;;15.84;67.91;101345.56;146617;581;46010;-65
2023/12/04 08:44:50;;;;;;;;;39.25;31.00;;;;;16.02;66.60;101345.41;146607;565;47012;-64
2023/12/04 08:47:42;;;;;;;;;34.75;30.25;;;;;16.08;65.86;101345.66;146615;625;46010;-65
2023/12/04 08:50:42;;;;;;;;;29.00;27.00;;;;;16.08;65.61;101347.38;146614;606;46013;-64
2023/12/04 08:53:34;;;;;;;;;29.00;23.50;;;;;16.07;65.21;101350.81;146615;579;47020;-64
2023/12/04 09:00:13;;;;;;;;;26.50;22.75;;;;;16.14;63.80;101355.47;146616;655;46020;-64
2023/12/04 09:03:08;;;;;;;;;24.00;21.50;;;;;16.12;63.60;101347.53;146615;564;46012;-64
2023/12/04 09:06:02;;;;;;;;;25.00;21.25;;;;;14.62;63.30;101068.97;146619;576;46021;-64
2023/12/04 09:08:57;;;;;;;;;26.50;23.00;;;;;16.30;63.58;101346.47;146614;581;48012;-65
2023/12/04 09:11:51;;;;;;;;;39.00;30.50;;;;;16.36;62.16;101351.94;146619;617;46010;-65
2023/12/04 09:14:45;;;;;;;;;35.75;28.25;;;;;16.40;61.48;101351.22;146617;597;46016;-64
2023/12/04 09:17:42;;;;;;;;;29.50;22.00;;;;;16.43;60.73;101353.94;146618;597;47020;-66
2023/12/04 09:20:34;;;;;;;;;13.00;13.00;;;;;16.46;58.31;101355.78;146606;602;48012;-64
2023/12/04 09:23:26;;;;;;;;;23.00;19.25;;;;;16.47;56.58;101355.84;146622;573;46014;-64
2023/12/04 09:26:23;;;;;;;;;17.75;13.75;;;;;16.48;57.59;101351.47;146617;601;46033;-63
2023/12/04 09:29:23;;;;;;;;;19.00;16.00;;;;;16.49;57.15;101351.56;146619;573;46020;-64
2023/12/04 09:32:18;;;;;;;;;22.25;14.75;;;;;16.51;56.07;101355.13;146616;622;46014;-64
2023/12/04 09:35:16;;;;;;;;;12.00;11.50;;;;;16.52;56.86;101362.16;146622;619;46010;-65
2023/12/04 09:38:17;;;;;;;;;13.25;10.00;;;;;16.54;55.90;101368.34;146618;563;46016;-66
2023/12/04 09:41:39;;;;;;;;;11.25;9.00;;;;;14.75;58.38;101058.16;146620;571;46011;-65
2023/12/04 09:45:03;;;;;;;;;9.00;8.50;;;;;16.48;59.38;101357.62;146616;618;47012;-64
2023/12/04 09:48:16;;;;;;;;;11.00;10.50;;;;;16.46;60.49;101364.53;146620;619;46021;-64
2023/12/04 09:51:16;;;;;;;;;14.25;11.00;;;;;16.46;61.14;101355.78;146616;571;46012;-66
2023/12/04 09:54:12;;;;;;;;;12.50;10.75;;;;;14.87;59.60;101087.38;146619;621;46010;-65
2023/12/04 09:57:05;;;;;;;;;10.00;10.00;;;;;16.42;60.24;101361.72;146615;667;46016;-65
2023/12/04 10:00:08;;;;;;;;;9.50;8.50;;;;;16.40;60.74;101369.53;146620;577;46020;-64
2023/12/04 10:03:06;;;;;;;;;8.75;7.50;;;;;16.37;59.30;101370.31;146616;631;48016;-65
2023/12/04 10:06:04;;;;;;;;;12.25;8.75;;;;;14.72;58.51;101078.94;146618;687;46010;-65
2023/12/04 10:09:11;;;;;;;;;14.25;13.00;;;;;16.30;58.64;101362.19;146612;598;47012;-64
2023/12/04 10:12:16;;;;;;;;;18.25;16.00;;;;;16.24;59.07;101362.84;146621;579;46010;-65
2023/12/04 10:15:16;;;;;;;;;18.75;16.50;;;;;16.19;59.68;101361.75;146616;599;47016;-64
2023/12/04 10:18:09;;;;;;;;;20.00;17.75;;;;;16.14;60.05;101358.09;146617;604;47014;-65
2023/12/04 10:21:07;;;;;;;;;17.00;14.25;;;;;16.12;58.83;101362.34;146616;583;46033;-66
2023/12/04 10:24:02;;;;;;;;;18.75;14.00;;;;;16.08;58.93;101356.13;146620;571;46020;-66
2023/12/04 10:26:56;;;;;;;;;22.25;21.50;;;;;16.11;59.30;101358.84;146618;602;47025;-65
2023/12/04 10:29:56;;;;;;;;;18.75;17.75;;;;;16.14;59.68;101353.75;146618;596;46020;-66
2023/12/04 10:32:52;;;;;;;;;20.50;20.00;;;;;16.17;59.08;101355.59;146617;569;47012;-66
2023/12/04 10:35:52;;;;;;;;;20.50;17.50;;;;;16.15;59.08;101352.00;146620;572;46020;-65
2023/12/04 10:38:47;;;;;;;;;21.25;19.75;;;;;16.11;58.40;101356.25;146615;571;46012;-66
2023/12/04 10:41:39;;;;;;;;;25.25;22.75;;;;;16.09;59.98;101359.63;146619;564;46025;-65
2023/12/04 10:44:39;;;;;;;;;24.75;23.25;;;;;16.06;59.43;101357.78;146615;616;47016;-65
2023/12/04 10:47:42;;;;;;;;;23.50;22.25;;;;;16.07;59.70;101362.16;146618;576;47011;-66
2023/12/04 10:50:52;;;;;;;;;21.25;18.00;;;;;16.09;59.67;101360.50;146616;586;46016;-65
2023/12/04 10:54:15;;;;;;;;;27.25;19.50;;;;;16.10;59.34;101364.00;146620;617;46021;-65
2023/12/04 10:57:09;;;;;;;;;26.25;23.25;;;;;16.09;59.18;101362.25;146617;707;46014;-65
2023/12/04 11:00:11;;;;;;;;;21.50;18.75;;;;;16.08;59.04;101361.34;146623;591;46010;-65
2023/12/04 11:03:36;;;;;;;;;26.50;24.00;;;;;14.26;58.92;101038.78;146615;608;47014;-65
2023/12/04 11:06:50;;;;;;;;;32.00;26.50;;;;;16.14;58.69;101356.34;146620;747;47010;-66
2023/12/04 11:09:42;;;;;;;;;31.25;28.25;;;;;16.13;59.08;101349.31;146617;573;46017;-64
2023/12/04 11:12:36;;;;;;;;;35.75;30.75;;;;;16.21;58.98;101353.97;146616;583;46020;-65
2023/12/04 11:15:34;;;;;;;;;19.75;18.00;;;;;16.36;58.66;101359.78;146614;593;46014;-65
2023/12/04 11:18:29;;;;;;;;;28.50;26.75;;;;;16.45;57.94;101365.37;146621;573;46021;-65
2023/12/04 11:21:28;;;;;;;;;18.50;17.50;;;;;16.53;57.13;101363.91;146615;663;46016;-65
2023/12/04 11:24:22;;;;;;;;;18.00;16.50;;;;;16.55;56.47;101364.88;146618;608;48010;-65
2023/12/04 11:27:24;;;;;;;;;17.75;15.00;;;;;16.54;57.45;101355.25;146615;575;46016;-65
2023/12/04 11:30:38;;;;;;;;;15.00;13.00;;;;;16.62;57.41;101361.63;146622;632;46020;-65
2023/12/04 11:33:41;;;;;;;;;17.00;16.25;;;;;16.63;57.23;101360.81;146615;696;46016;-65
2023/12/04 11:36:34;;;;;;;;;21.75;18.75;;;;;16.67;57.37;101363.56;146635;664;46014;-66
2023/12/04 11:39:44;;;;;;;;;23.00;21.00;;;;;16.75;56.57;101363.00;146633;585;46013;-66
2023/12/04 11:42:39;;;;;;;;;16.25;14.00;;;;;16.92;57.37;101362.75;146635;573;45020;-66
2023/12/04 11:45:37;;;;;;;;;15.25;14.75;;;;;17.11;55.50;101361.66;146633;591;45016;-66
2023/12/04 11:48:32;;;;;;;;;16.00;15.00;;;;;17.14;55.47;101367.91;146635;569;45010;-65
2023/12/04 11:51:51;;;;;;;;;16.50;16.50;;;;;15.30;56.15;101056.81;146631;618;45014;-66
2023/12/04 11:55:16;;;;;;;;;18.25;15.00;;;;;17.02;55.80;101370.09;146632;588;46010;-64
2023/12/04 11:58:14;;;;;;;;;17.00;10.75;;;;;16.89;55.36;101370.50;146633;576;45014;-66
2023/12/04 12:01:12;;;;;;;;;19.50;17.00;;;;;16.79;55.64;101380.62;146636;576;45021;-65
2023/12/04 12:04:04;;;;;;;;;16.50;14.50;;;;;16.70;55.95;101376.72;146630;590;47012;-65
2023/12/04 12:06:58;;;;;;;;;19.75;17.00;;;;;16.68;56.67;101378.44;146633;667;46014;-65
2023/12/04 12:09:50;;;;;;;;;14.75;12.75;;;;;16.65;55.87;101380.94;146632;723;46014;-66
2023/12/04 12:12:46;;;;;;;;;13.50;12.50;;;;;16.58;56.09;101379.81;146631;695;46010;-67
2023/12/04 12:15:47;;;;;;;;;15.00;13.00;;;;;16.53;55.83;101381.34;146633;669;44915;-63
2023/12/04 12:18:43;;;;;;;;;16.75;14.50;;;;;16.47;56.65;101381.12;146636;618;45020;-65
2023/12/04 12:21:45;;;;;;;;;19.00;15.50;;;;;16.47;57.14;101375.87;146633;598;45016;-65
2023/12/04 12:24:40;;;;;;;;;17.75;14.25;;;;;16.44;57.15;101376.66;146634;615;46021;-65
2023/12/04 12:27:44;;;;;;;;;16.25;15.00;;;;;16.42;57.52;101383.59;146628;576;45016;-64
2023/12/04 12:30:41;;;;;;;;;17.00;13.75;;;;;16.43;57.26;101382.75;146635;615;46010;-65
2023/12/04 12:33:56;;;;;;;;;17.25;12.00;;;;;16.40;56.81;101383.50;146628;652;47014;-64
2023/12/04 12:37:05;;;;;;;;;;;;;;;;;;;;;
2023/12/04 12:40:04;;;;;;;;;18.00;15.25;;;;;16.44;57.32;101386.25;146613;573;46016;-66
2023/12/04 12:43:23;;;;;;;;;15.00;13.25;;;;;16.43;57.43;101389.72;146621;575;47010;-64
2023/12/04 12:46:19;;;;;;;;;14.00;13.00;;;;;16.40;57.34;101385.25;146617;581;46024;-65
2023/12/04 12:49:27;;;;;;;;;22.50;18.75;;;;;16.39;56.85;101383.47;146619;600;46010;-64
2023/12/04 12:52:23;;;;;;;;;22.00;20.25;;;;;16.37;57.32;101378.16;146618;583;46012;-65
2023/12/04 12:55:27;;;;;;;;;22.50;19.75;;;;;16.39;57.66;101388.69;146621;587;46010;-64
2023/12/04 12:58:21;;;;;;;;;40.25;33.00;;;;;16.38;55.88;101382.53;146615;645;46016;-65
2023/12/04 13:01:20;;;;;;;;;27.50;24.75;;;;;16.43;56.26;101389.72;146622;599;46010;-64
2023/12/04 13:04:21;;;;;;;;;9.75;7.00;;;;;16.44;56.79;101391.47;146619;603;46035;-64
2023/12/04 13:07:20;;;;;;;;;16.00;13.75;;;;;16.40;55.52;101387.84;146619;660;46020;-64
2023/12/04 13:10:19;;;;;;;;;16.50;15.50;;;;;16.44;57.14;101388.88;146614;569;47012;-65
2023/12/04 13:13:33;;;;;;;;;;;;;;;;;;;;;
2023/12/04 13:16:35;;;;;;;;;30.50;25.75;;;;;16.38;57.10;101387.78;146614;611;46017;-65
2023/12/04 13:19:31;;;;;;;;;10.50;10.25;;;;;16.44;56.12;101400.22;146617;651;47020;-65
2023/12/04 13:22:28;;;;;;;;;21.00;17.50;;;;;16.39;55.79;101410.53;146613;579;46016;-65
2023/12/04 13:25:21;;;;;;;;;15.50;15.25;;;;;16.35;56.22;101405.09;146620;631;48010;-65
2023/12/04 13:28:20;;;;;;;;;18.75;16.75;;;;;16.33;56.46;101398.94;146618;603;46044;-63
2023/12/04 13:31:19;;;;;;;;;27.75;25.25;;;;;16.37;55.54;101400.81;146621;615;46020;-63
2023/12/04 13:34:27;;;;;;;;;15.50;13.00;;;;;16.39;56.12;101404.41;146615;641;47012;-66
2023/12/04 13:37:19;;;;;;;;;18.25;13.50;;;;;16.41;56.29;101402.72;146613;576;46020;-65
2023/12/04 13:40:28;;;;;;;;;44.75;35.75;;;;;16.43;56.79;101410.66;146609;631;47012;-65
2023/12/04 13:46:35;;;;;;;;;23.75;23.50;;;;;16.34;55.70;101408.56;146611;712;46033;-65
2023/12/04 13:49:27;;;;;;;;;22.25;19.50;;;;;16.26;55.77;101409.97;146612;629;47010;-65
2023/12/04 13:52:33;;;;;;;;;19.75;18.50;;;;;16.17;57.24;101413.16;146609;578;47013;-64
2023/12/04 13:56:03;;;;;;;;;21.75;17.50;;;;;16.05;56.70;101413.56;146614;570;46020;-65